Time;durP1;ratioP1;P1;durP2;ratioP2;P2;SDS_P1;SDS_P2;PMS_P1;PMS_P2;Temp;Humidity;BMP_temperature;BMP_pressure;BME280_temperature;BME280_humidity;BME280_pressure;Samples;Min_cycle;Max_cycle;Signal;HPM_P1;HPM_P2
2021/06/22 00:00:24;;;;;;;12.50;5.50;;;;;;;12.63;97.06;101063.00;5030942;28;20231;-85
2021/06/22 00:02:50;;;;;;;11.20;5.80;;;;;;;12.58;97.70;101062.66;5044354;28;20315;-82
2021/06/22 00:05:17;;;;;;;11.80;6.15;;;;;;;12.53;97.72;101065.84;5046098;28;20071;-82
2021/06/22 00:07:44;;;;;;;13.43;6.80;;;;;;;12.56;98.29;101073.59;5048037;28;20049;-82
2021/06/22 00:10:10;;;;;;;12.02;6.20;;;;;;;12.52;98.16;101066.03;5061574;28;20485;-83
2021/06/22 00:12:36;;;;;;;10.18;6.00;;;;;;;12.51;98.81;101067.03;5053476;28;20045;-81
2021/06/22 00:15:03;;;;;;;10.35;5.85;;;;;;;12.46;98.81;101070.25;5044821;28;20331;-80
2021/06/22 00:17:28;;;;;;;13.02;6.88;;;;;;;12.34;99.00;101063.50;5029345;28;20124;-81
2021/06/22 00:19:54;;;;;;;11.50;6.00;;;;;;;12.28;99.05;101065.03;5048430;28;20116;-82
2021/06/22 00:22:19;;;;;;;10.73;6.35;;;;;;;12.22;99.30;101054.94;5045075;28;20326;-81
2021/06/22 00:24:45;;;;;;;11.18;6.30;;;;;;;12.16;100.00;101037.63;5060868;28;20396;-83
2021/06/22 00:27:12;;;;;;;12.50;6.07;;;;;;;12.15;100.00;101025.19;5045345;28;20520;-81
2021/06/22 00:29:39;;;;;;;13.80;6.80;;;;;;;12.12;100.00;101017.44;5032723;28;20041;-83
2021/06/22 00:32:05;;;;;;;14.13;6.82;;;;;;;12.05;100.00;101024.50;5046769;28;20041;-81
2021/06/22 00:34:30;;;;;;;12.95;6.93;;;;;;;12.08;100.00;101026.00;5062334;28;20041;-81
2021/06/22 00:36:56;;;;;;;12.88;7.15;;;;;;;12.11;100.00;101026.53;5044577;28;20041;-80
2021/06/22 00:39:21;;;;;;;13.52;7.68;;;;;;;12.13;100.00;101037.13;5044420;28;20124;-82
2021/06/22 00:41:46;;;;;;;11.82;7.15;;;;;;;12.04;100.00;101048.91;5044132;28;20135;-83
2021/06/22 00:44:12;;;;;;;16.70;7.18;;;;;;;12.09;100.00;101050.06;5044596;28;20040;-82
2021/06/22 00:46:37;;;;;;;13.05;7.15;;;;;;;12.09;100.00;101057.31;5047690;28;20110;-81
2021/06/22 00:49:04;;;;;;;11.70;6.82;;;;;;;12.18;100.00;101061.69;5044954;28;20037;-81
2021/06/22 00:51:29;;;;;;;12.65;7.68;;;;;;;12.21;100.00;101066.72;5042149;28;20485;-83
2021/06/22 00:53:56;;;;;;;18.00;7.38;;;;;;;12.21;100.00;101061.34;5039750;28;20124;-81
2021/06/22 00:56:23;;;;;;;12.63;8.02;;;;;;;12.17;100.00;101063.53;5028998;28;20040;-83
2021/06/22 00:58:49;;;;;;;11.75;7.95;;;;;;;12.16;100.00;101052.94;5045484;28;20044;-81
2021/06/22 01:01:15;;;;;;;13.07;8.30;;;;;;;12.18;100.00;101059.00;5042207;28;20095;-83
2021/06/22 01:03:40;;;;;;;15.40;8.23;;;;;;;12.13;100.00;101069.41;5040119;28;20080;-81
2021/06/22 01:06:05;;;;;;;16.55;8.52;;;;;;;12.07;100.00;101075.47;5040075;28;20037;-83
2021/06/22 01:08:33;;;;;;;17.27;8.35;;;;;;;12.08;100.00;101077.97;5040290;28;20107;-83
2021/06/22 01:10:58;;;;;;;11.40;7.78;;;;;;;12.06;100.00;101082.69;5036831;28;20037;-82
2021/06/22 01:13:25;;;;;;;11.23;8.13;;;;;;;12.12;100.00;101073.94;5049030;28;20110;-81
2021/06/22 01:15:50;;;;;;;11.82;7.97;;;;;;;12.06;100.00;101052.25;5032868;28;20048;-81
2021/06/22 01:18:17;;;;;;;16.58;8.82;;;;;;;11.98;100.00;101038.81;5039014;28;20041;-82
2021/06/22 01:20:42;;;;;;;13.63;8.40;;;;;;;11.94;100.00;101028.38;5033127;28;20037;-83
2021/06/22 01:23:08;;;;;;;11.27;8.00;;;;;;;11.98;100.00;101028.06;5043808;28;20041;-82
2021/06/22 01:25:35;;;;;;;13.15;8.52;;;;;;;12.02;100.00;101034.75;5026997;28;20383;-81
2021/06/22 01:28:01;;;;;;;15.50;8.60;;;;;;;11.96;100.00;101037.09;5044029;28;20072;-82
2021/06/22 01:30:29;;;;;;;12.80;8.77;;;;;;;11.90;100.00;101043.16;5045098;28;20052;-82
2021/06/22 01:32:55;;;;;;;14.02;8.73;;;;;;;11.85;100.00;101036.56;5043220;28;20581;-81
2021/06/22 01:35:21;;;;;;;14.10;8.88;;;;;;;11.82;100.00;101032.34;5045602;28;20132;-80
2021/06/22 01:38:04;;;;;;;18.08;9.40;;;;;;;11.80;100.00;101033.56;5044628;28;20448;-82
2021/06/22 01:40:29;;;;;;;18.98;9.32;;;;;;;11.72;100.00;101029.84;5055391;28;20544;-82
2021/06/22 01:43:00;;;;;;;18.92;10.63;;;;;;;11.72;100.00;101029.00;5041370;28;20322;-81
2021/06/22 01:45:26;;;;;;;17.95;10.63;;;;;;;11.81;100.00;101029.84;5026655;28;20416;-82
2021/06/22 01:47:51;;;;;;;18.70;11.88;;;;;;;11.81;100.00;101037.91;5029674;28;20048;-81
2021/06/22 01:50:17;;;;;;;20.70;11.52;;;;;;;11.84;100.00;101038.41;5041536;28;20390;-81
2021/06/22 01:52:43;;;;;;;19.88;12.32;;;;;;;11.90;100.00;101036.94;5044046;28;20045;-82
2021/06/22 01:55:55;;;;;;;22.52;12.25;;;;;;;11.95;100.00;101046.19;5044464;28;20048;-81
2021/06/22 01:58:00;;;;;;;23.42;13.15;;;;;;;11.86;100.00;101057.97;5039127;28;20561;-81
2021/06/22 02:00:25;;;;;;;;;;;;;;;11.88;100.00;101055.94;5058223;28;20068;-82
2021/06/22 02:02:51;;;;;;;24.20;13.70;;;;;;;11.78;100.00;101055.22;5044448;28;19998;-82
2021/06/22 02:05:16;;;;;;;21.73;13.10;;;;;;;11.78;100.00;101054.38;5044299;28;20041;-81
2021/06/22 02:07:42;;;;;;;23.88;13.45;;;;;;;11.84;100.00;101049.19;5044828;28;20041;-81
2021/06/22 02:10:09;;;;;;;23.38;14.77;;;;;;;11.88;100.00;101055.09;5044162;28;20094;-81
2021/06/22 02:12:34;;;;;;;25.63;13.48;;;;;;;11.81;100.00;101065.66;5056112;28;20098;-83
2021/06/22 02:15:00;;;;;;;21.15;13.38;;;;;;;11.75;100.00;101069.00;5028154;28;20761;-81
2021/06/22 02:17:26;;;;;;;23.38;13.45;;;;;;;11.79;100.00;101051.50;5039046;28;20132;-81
2021/06/22 02:19:52;;;;;;;24.80;15.07;;;;;;;11.86;100.00;101046.38;5036821;28;20046;-80
2021/06/22 02:22:17;;;;;;;28.27;14.18;;;;;;;11.85;100.00;101056.25;5034619;28;20375;-81
2021/06/22 02:24:43;;;;;;;28.73;13.68;;;;;;;11.87;100.00;101051.56;5009119;28;20046;-82
2021/06/22 02:27:08;;;;;;;23.58;14.60;;;;;;;11.86;100.00;101052.59;5038621;28;20045;-82
2021/06/22 02:29:34;;;;;;;28.25;13.95;;;;;;;11.79;100.00;101067.66;5022586;28;20041;-81
2021/06/22 02:31:59;;;;;;;24.95;14.30;;;;;;;11.83;100.00;101071.69;5046286;28;20037;-82
2021/06/22 02:34:24;;;;;;;22.98;14.98;;;;;;;11.89;100.00;101072.94;5038736;28;20046;-81
2021/06/22 02:36:50;;;;;;;26.33;14.73;;;;;;;11.90;100.00;101091.56;5040002;28;20430;-82
2021/06/22 02:39:15;;;;;;;22.90;14.35;;;;;;;11.72;100.00;101083.59;5043344;28;20029;-81
2021/06/22 02:41:40;;;;;;;25.98;14.23;;;;;;;11.63;100.00;101089.97;5036752;28;20288;-81
2021/06/22 02:44:07;;;;;;;23.15;15.18;;;;;;;11.67;100.00;101090.47;5032615;28;20045;-81
2021/06/22 02:46:33;;;;;;;28.65;14.88;;;;;;;11.77;100.00;101085.81;5033180;28;20128;-81
2021/06/22 02:48:58;;;;;;;24.77;15.05;;;;;;;11.77;100.00;101083.13;5038879;28;20140;-82
2021/06/22 02:51:23;;;;;;;26.83;14.93;;;;;;;11.72;100.00;101072.00;5043243;28;20047;-82
2021/06/22 02:53:49;;;;;;;25.63;15.50;;;;;;;11.67;100.00;101079.72;5015144;28;20488;-80
2021/06/22 02:56:14;;;;;;;21.95;15.07;;;;;;;11.74;100.00;101080.78;5034349;28;20080;-81
2021/06/22 02:58:40;;;;;;;23.40;14.65;;;;;;;11.77;100.00;101077.75;5031776;28;20052;-81
2021/06/22 03:01:05;;;;;;;25.38;14.98;;;;;;;11.70;100.00;101082.91;5030770;28;20045;-82
2021/06/22 03:03:30;;;;;;;24.58;15.02;;;;;;;11.65;100.00;101074.53;5051186;28;20041;-81
2021/06/22 03:05:56;;;;;;;29.98;16.58;;;;;;;11.70;100.00;101079.41;5043083;28;20041;-82
2021/06/22 03:08:21;;;;;;;25.30;14.65;;;;;;;11.77;100.00;101076.88;5043471;28;20049;-82
2021/06/22 03:10:47;;;;;;;24.58;15.40;;;;;;;11.73;100.00;101087.13;5043934;28;20442;-81
2021/06/22 03:13:18;;;;;;;24.73;14.63;;;;;;;11.77;100.00;101085.81;5042629;28;20074;-81
2021/06/22 03:15:43;;;;;;;25.58;15.95;;;;;;;11.76;100.00;101081.41;5045552;28;20050;-82
2021/06/22 03:18:18;;;;;;;24.20;15.35;;;;;;;11.70;100.00;101093.69;5061713;28;20759;-81
2021/06/22 03:20:50;;;;;;;28.85;16.27;;;;;;;11.78;100.00;101097.41;5061220;28;20045;-82
2021/06/22 03:23:16;;;;;;;25.30;15.60;;;;;;;11.87;100.00;101101.81;5044162;28;20044;-82
2021/06/22 03:25:42;;;;;;;24.90;15.20;;;;;;;11.90;100.00;101101.47;5038872;28;20397;-82
2021/06/22 03:28:08;;;;;;;27.75;16.58;;;;;;;11.85;100.00;101099.28;5039103;28;20128;-82
2021/06/22 03:30:34;;;;;;;27.50;16.35;;;;;;;11.83;100.00;101095.91;5044054;28;20044;-82
2021/06/22 03:33:00;;;;;;;24.92;15.57;;;;;;;11.85;100.00;101093.91;5050360;28;20052;-81
2021/06/22 03:35:29;;;;;;;24.00;14.82;;;;;;;11.83;100.00;101087.00;5046380;28;20045;-82
2021/06/22 03:38:00;;;;;;;27.55;15.93;;;;;;;11.80;100.00;101084.66;5047447;28;20132;-82
2021/06/22 03:40:27;;;;;;;27.73;15.52;;;;;;;11.82;100.00;101080.75;5045385;28;20071;-83
2021/06/22 03:42:53;;;;;;;26.80;15.45;;;;;;;11.84;100.00;101089.50;5047031;28;20033;-82
2021/06/22 03:45:20;;;;;;;25.08;15.40;;;;;;;11.89;100.00;101089.91;5046359;28;20374;-82
2021/06/22 03:47:47;;;;;;;25.00;15.43;;;;;;;11.89;100.00;101089.91;5042250;28;20468;-83
2021/06/22 03:50:14;;;;;;;26.08;15.20;;;;;;;11.86;100.00;101092.91;5060099;28;20037;-84
2021/06/22 03:52:41;;;;;;;26.90;15.25;;;;;;;11.94;100.00;101101.00;5057056;28;20037;-82
2021/06/22 03:55:26;;;;;;;23.77;15.75;;;;;;;12.00;100.00;101101.31;5040873;28;20037;-82
2021/06/22 03:57:54;;;;;;;24.50;15.43;;;;;;;12.03;100.00;101101.84;5054792;28;20036;-84
2021/06/22 04:00:21;;;;;;;22.15;15.70;;;;;;;12.01;100.00;101106.56;5037444;28;20037;-82
2021/06/22 04:02:48;;;;;;;24.00;14.75;;;;;;;11.93;100.00;101104.69;5045838;28;20422;-82
2021/06/22 04:05:14;;;;;;;24.73;15.35;;;;;;;11.94;100.00;101097.47;5043981;28;20077;-82
2021/06/22 04:07:47;;;;;;;29.00;16.17;;;;;;;12.02;100.00;101104.69;5034577;28;20703;-82
2021/06/22 04:10:13;;;;;;;23.23;15.15;;;;;;;12.03;100.00;101101.03;5053716;28;20069;-82
2021/06/22 04:12:38;;;;;;;24.02;15.02;;;;;;;12.07;100.00;101094.28;5030802;28;20124;-82
2021/06/22 04:15:05;;;;;;;26.63;14.93;;;;;;;12.07;100.00;101091.59;5045343;28;20052;-85
2021/06/22 04:17:31;;;;;;;22.45;14.77;;;;;;;12.11;100.00;101090.25;5042658;28;20038;-81
2021/06/22 04:19:59;;;;;;;23.35;14.18;;;;;;;12.17;100.00;101103.88;5053016;28;20748;-83
2021/06/22 04:22:26;;;;;;;23.50;14.27;;;;;;;12.25;100.00;101105.72;5063119;28;20703;-81
2021/06/22 04:24:51;;;;;;;25.83;14.65;;;;;;;12.19;100.00;101095.63;5038462;28;20049;-81
2021/06/22 04:27:17;;;;;;;26.67;15.02;;;;;;;12.22;100.00;101091.78;5045154;28;20708;-83
2021/06/22 04:29:42;;;;;;;28.42;14.00;;;;;;;12.27;100.00;101098.34;5048462;28;20575;-82
2021/06/22 04:32:09;;;;;;;24.30;14.20;;;;;;;12.31;100.00;101090.75;5047252;28;20033;-81
2021/06/22 04:34:35;;;;;;;23.05;13.88;;;;;;;12.31;100.00;101093.44;5044150;28;20056;-83
2021/06/22 04:37:00;;;;;;;19.48;13.95;;;;;;;12.39;100.00;101091.59;5056710;28;20041;-84
2021/06/22 04:39:25;;;;;;;23.00;13.77;;;;;;;12.44;100.00;101092.97;5045888;28;20041;-83
2021/06/22 04:41:51;;;;;;;21.83;14.60;;;;;;;12.39;100.00;101102.34;5046075;28;20470;-85
2021/06/22 04:44:16;;;;;;;20.52;14.00;;;;;;;12.44;100.00;101092.97;5042315;28;20090;-83
2021/06/22 04:46:42;;;;;;;24.80;13.98;;;;;;;12.43;100.00;101092.13;5045324;28;20235;-84
2021/06/22 04:49:08;;;;;;;24.08;13.82;;;;;;;12.48;100.00;101088.91;5046606;28;20095;-83
2021/06/22 04:51:39;;;;;;;21.55;13.82;;;;;;;12.45;100.00;101092.78;5056796;28;20040;-83
2021/06/22 04:54:07;;;;;;;23.67;13.75;;;;;;;12.52;100.00;101096.47;5044026;28;20029;-82
2021/06/22 04:56:35;;;;;;;21.05;12.88;;;;;;;12.62;100.00;101091.75;5044104;28;20517;-82
2021/06/22 04:59:12;;;;;;;21.27;13.07;;;;;;;12.53;100.00;101090.06;5047842;28;20067;-84
2021/06/22 05:01:38;;;;;;;22.75;12.95;;;;;;;12.57;100.00;101098.66;5050411;28;20041;-81
2021/06/22 05:04:05;;;;;;;17.48;12.10;;;;;;;12.67;100.00;101099.31;5046455;28;20044;-81
2021/06/22 05:06:30;;;;;;;17.63;12.65;;;;;;;12.71;100.00;101092.56;5050078;28;20041;-81
2021/06/22 05:08:55;;;;;;;21.58;12.55;;;;;;;12.77;100.00;101104.50;5028502;28;20677;-81
2021/06/22 05:11:21;;;;;;;21.80;12.25;;;;;;;12.72;100.00;101104.22;5011524;28;20535;-83
2021/06/22 05:13:46;;;;;;;20.48;11.95;;;;;;;12.84;100.00;101095.59;5041338;28;20076;-83
2021/06/22 05:16:22;;;;;;;17.50;12.50;;;;;;;12.88;100.00;101090.69;5034536;28;20049;-81
2021/06/22 05:18:48;;;;;;;21.45;12.35;;;;;;;12.84;100.00;101090.19;5059670;28;20537;-81
2021/06/22 05:21:13;;;;;;;18.52;11.30;;;;;;;12.90;100.00;101099.44;5048089;28;20124;-81
2021/06/22 05:23:39;;;;;;;20.33;11.75;;;;;;;12.92;100.00;101099.25;5044468;28;20043;-83
2021/06/22 05:26:04;;;;;;;20.48;11.48;;;;;;;12.97;100.00;101102.28;5043099;28;20389;-82
2021/06/22 05:28:29;;;;;;;18.67;11.38;;;;;;;13.03;100.00;101109.66;5034585;28;20041;-84
2021/06/22 05:30:57;;;;;;;18.45;11.63;;;;;;;13.07;100.00;101109.16;5051778;28;20138;-82
2021/06/22 05:33:22;;;;;;;21.52;11.40;;;;;;;13.06;100.00;101109.31;5041177;28;20108;-81
2021/06/22 05:35:48;;;;;;;18.77;10.20;;;;;;;13.11;100.00;101117.72;5043899;28;20505;-82
2021/06/22 05:38:14;;;;;;;21.63;11.00;;;;;;;13.24;100.00;101114.50;5044513;28;20048;-84
2021/06/22 05:40:40;;;;;;;21.90;10.80;;;;;;;13.23;100.00;101112.81;5056580;28;20049;-83
2021/06/22 05:43:05;;;;;;;17.45;9.45;;;;;;;13.23;100.00;101107.41;5026355;28;20037;-81
2021/06/22 05:45:31;;;;;;;20.73;10.43;;;;;;;13.28;100.00;101105.09;5026159;28;20045;-83
2021/06/22 05:47:57;;;;;;;21.20;9.93;;;;;;;13.33;100.00;101110.81;5040603;28;20494;-84
2021/06/22 05:50:22;;;;;;;16.63;8.70;;;;;;;13.45;99.95;101103.16;5033985;28;20037;-84
2021/06/22 05:52:49;;;;;;;16.10;8.93;;;;;;;13.46;98.40;101111.06;5048822;28;20041;-83
2021/06/22 05:55:18;;;;;;;19.10;7.88;;;;;;;13.57;98.50;101122.47;5029420;28;20508;-83
2021/06/22 05:57:48;;;;;;;12.23;6.38;;;;;;;13.63;96.49;101117.22;5055743;28;20051;-82
2021/06/22 06:00:16;;;;;;;13.25;6.30;;;;;;;13.66;95.25;101116.88;5036944;28;20052;-83
2021/06/22 06:02:41;;;;;;;15.77;5.93;;;;;;;13.70;95.19;101122.78;5024193;28;20441;-83
2021/06/22 06:05:09;;;;;;;11.77;5.90;;;;;;;13.77;94.78;101121.88;5037049;28;20040;-83
2021/06/22 06:07:34;;;;;;;11.70;5.90;;;;;;;13.82;94.94;101113.25;5049054;28;20393;-83
2021/06/22 06:10:00;;;;;;;12.30;5.72;;;;;;;13.89;94.29;101121.47;5048471;28;20044;-82
2021/06/22 06:12:30;;;;;;;10.85;5.82;;;;;;;13.90;93.71;101117.78;5056223;28;20111;-81
2021/06/22 06:14:56;;;;;;;11.73;5.38;;;;;;;14.02;92.70;101124.44;5043391;28;20041;-83
2021/06/22 06:17:21;;;;;;;10.23;5.22;;;;;;;14.04;92.45;101125.09;5055001;28;20513;-82
2021/06/22 06:19:47;;;;;;;13.43;6.07;;;;;;;14.05;92.89;101125.94;5042905;28;20473;-82
2021/06/22 06:22:13;;;;;;;15.23;6.82;;;;;;;14.21;92.50;101126.66;5041406;28;20041;-82
2021/06/22 06:24:38;;;;;;;12.77;6.03;;;;;;;14.35;92.71;101132.28;5051410;28;20131;-83
2021/06/22 06:27:11;;;;;;;14.13;5.43;;;;;;;14.42;90.79;101134.09;5027413;28;20311;-85
2021/06/22 06:32:05;;;;;;;11.90;5.07;;;;;;;14.51;88.46;101134.84;5043726;28;20045;-83
2021/06/22 06:34:31;;;;;;;11.65;4.95;;;;;;;14.51;87.44;101134.03;5036860;28;20128;-81
2021/06/22 06:36:56;;;;;;;9.52;5.05;;;;;;;14.75;86.83;101123.00;5053614;28;20120;-83
2021/06/22 06:39:21;;;;;;;10.13;5.00;;;;;;;14.78;87.19;101129.91;5030378;28;20304;-83
2021/06/22 06:41:47;;;;;;;10.95;5.15;;;;;;;14.78;84.76;101133.44;5041374;28;20052;-82
2021/06/22 06:44:12;;;;;;;13.18;5.70;;;;;;;14.69;84.49;101131.03;5030344;28;20053;-83
2021/06/22 06:46:37;;;;;;;11.65;5.65;;;;;;;14.59;84.99;101142.91;5058473;28;20053;-83
2021/06/22 06:49:04;;;;;;;12.18;5.80;;;;;;;14.69;84.73;101149.94;5015573;28;20049;-83
2021/06/22 06:51:29;;;;;;;12.90;5.75;;;;;;;14.76;84.62;101156.25;5053165;28;20039;-81
2021/06/22 06:53:57;;;;;;;10.98;6.15;;;;;;;14.80;85.22;101157.59;5040408;28;20127;-83
2021/06/22 06:56:23;;;;;;;11.57;6.25;;;;;;;14.68;85.02;101162.59;5057614;28;20033;-82
2021/06/22 06:58:49;;;;;;;12.93;6.90;;;;;;;14.79;84.32;101164.03;5058585;28;20073;-81
2021/06/22 07:01:15;;;;;;;12.82;7.05;;;;;;;14.77;83.24;101160.66;5042711;28;20120;-82
2021/06/22 07:03:44;;;;;;;12.98;7.00;;;;;;;14.68;82.35;101167.16;5038808;28;20037;-83
2021/06/22 07:06:10;;;;;;;13.50;7.68;;;;;;;14.78;84.42;101159.63;5041609;28;20118;-82
2021/06/22 07:08:35;;;;;;;19.05;7.70;;;;;;;14.95;83.54;101166.56;5059666;28;20041;-80
2021/06/22 07:11:01;;;;;;;16.63;7.65;;;;;;;15.04;83.72;101168.16;5060374;28;20044;-80
2021/06/22 07:13:33;;;;;;;14.32;7.25;;;;;;;15.11;83.61;101162.88;5039168;28;20076;-81
2021/06/22 07:16:00;;;;;;;16.83;8.25;;;;;;;14.97;81.55;101169.94;5038503;28;20136;-80
2021/06/22 07:18:29;;;;;;;15.55;8.45;;;;;;;14.98;82.65;101178.88;5042332;28;20045;-83
2021/06/22 07:20:55;;;;;;;;;;;;;;;15.04;84.02;101178.97;5041150;28;20047;-82
2021/06/22 07:23:20;;;;;;;16.38;8.65;;;;;;;15.09;82.62;101176.56;5042834;28;20574;-83
2021/06/22 07:25:45;;;;;;;14.88;8.43;;;;;;;15.27;83.24;101175.34;5041844;28;20067;-81
2021/06/22 07:28:11;;;;;;;17.58;9.02;;;;;;;15.38;82.01;101177.59;5042411;28;20497;-84
2021/06/22 07:30:36;;;;;;;14.48;8.93;;;;;;;15.53;81.09;101173.00;5036437;28;20045;-81
2021/06/22 07:33:02;;;;;;;15.25;9.20;;;;;;;15.54;79.46;101182.81;5050654;28;20326;-83
2021/06/22 07:35:29;;;;;;;14.10;8.90;;;;;;;15.69;80.97;101173.88;5027351;28;20034;-83
2021/06/22 07:37:56;;;;;;;12.68;9.00;;;;;;;15.68;80.09;101177.59;5040995;28;20541;-80
2021/06/22 07:40:21;;;;;;;16.77;9.45;;;;;;;15.65;80.89;101183.34;5050249;28;20597;-84
2021/06/22 07:42:51;;;;;;;15.07;9.23;;;;;;;15.69;80.12;101185.53;5039856;28;20099;-80
2021/06/22 07:45:17;;;;;;;16.27;10.45;;;;;;;15.68;80.48;101185.72;5044291;28;20127;-83
2021/06/22 07:47:42;;;;;;;15.95;9.70;;;;;;;15.63;80.38;101185.44;5034920;28;20121;-82
2021/06/22 07:50:09;;;;;;;15.55;10.70;;;;;;;15.63;81.89;101182.72;5045041;28;20049;-83
2021/06/22 07:52:34;;;;;;;14.35;10.70;;;;;;;15.56;79.41;101182.63;5058817;28;20049;-82
2021/06/22 07:55:01;;;;;;;13.93;10.57;;;;;;;15.55;79.67;101189.06;5038356;28;20044;-81
2021/06/22 07:57:27;;;;;;;17.27;10.93;;;;;;;15.39;78.68;101189.25;5045843;28;20095;-83
2021/06/22 07:59:52;;;;;;;13.77;10.07;;;;;;;15.35;79.08;101183.38;5040859;28;20052;-84
2021/06/22 08:02:18;;;;;;;17.02;10.93;;;;;;;15.32;80.39;101186.47;5040146;28;20045;-84
2021/06/22 08:04:43;;;;;;;17.40;11.32;;;;;;;15.29;80.09;101189.53;5046508;28;20128;-80
2021/06/22 08:07:08;;;;;;;15.93;10.00;;;;;;;15.28;79.12;101182.47;5064030;28;20047;-84
2021/06/22 08:09:34;;;;;;;16.63;10.55;;;;;;;15.20;79.95;101185.25;5045784;28;20033;-83
2021/06/22 08:12:01;;;;;;;14.73;10.10;;;;;;;15.20;80.21;101194.19;5044932;28;20599;-81
2021/06/22 08:14:26;;;;;;;14.20;10.18;;;;;;;15.28;80.60;101191.41;5043133;28;20045;-82
2021/06/22 08:16:52;;;;;;;13.93;10.27;;;;;;;15.32;79.26;101191.88;5043019;28;20091;-81
2021/06/22 08:19:17;;;;;;;16.95;9.98;;;;;;;15.37;79.36;101184.03;5043339;28;20053;-83
2021/06/22 08:21:43;;;;;;;15.00;9.90;;;;;;;15.54;79.16;101187.41;5025050;28;20045;-81
2021/06/22 08:24:08;;;;;;;15.25;10.20;;;;;;;15.72;78.65;101192.44;5041890;28;20095;-83
2021/06/22 08:26:33;;;;;;;15.10;10.25;;;;;;;15.94;79.20;101199.59;5025327;28;20120;-81
2021/06/22 08:28:59;;;;;;;16.20;10.15;;;;;;;16.22;78.83;101207.00;5043911;28;20057;-84
2021/06/22 08:31:32;;;;;;;19.17;10.52;;;;;;;16.31;76.54;101197.72;5042134;28;20583;-83
2021/06/22 08:33:59;;;;;;;17.10;11.40;;;;;;;16.36;77.97;101197.97;5032969;28;20037;-81
2021/06/22 08:36:24;;;;;;;21.15;12.13;;;;;;;16.44;75.10;101210.56;5027691;28;20044;-81
2021/06/22 08:38:49;;;;;;;14.25;11.18;;;;;;;16.27;75.73;101215.38;5045415;28;20040;-81
2021/06/22 08:41:15;;;;;;;14.50;10.73;;;;;;;16.38;74.94;101217.59;5045816;28;20102;-82
2021/06/22 08:43:43;;;;;;;18.45;11.15;;;;;;;16.31;75.74;101224.78;5035616;28;20044;-83
2021/06/22 08:46:10;;;;;;;15.77;10.98;;;;;;;16.41;75.51;101225.34;5039958;28;20099;-83
2021/06/22 08:48:35;;;;;;;16.75;10.13;;;;;;;16.45;73.79;101218.47;5039285;28;20107;-83
2021/06/22 08:51:01;;;;;;;20.15;10.68;;;;;;;16.40;72.93;101218.25;5043893;28;20630;-82
2021/06/22 08:53:28;;;;;;;14.27;10.48;;;;;;;16.43;72.23;101214.31;5044656;28;20048;-82
2021/06/22 08:55:53;;;;;;;12.57;9.32;;;;;;;16.45;72.87;101213.06;5051879;28;20501;-82
2021/06/22 08:58:19;;;;;;;14.43;10.77;;;;;;;16.54;72.86;101205.66;5040870;28;20044;-81
2021/06/22 09:00:47;;;;;;;19.05;11.07;;;;;;;16.56;72.21;101208.19;5043711;28;20049;-81
2021/06/22 09:03:15;;;;;;;14.97;10.73;;;;;;;16.60;73.15;101215.75;5045359;28;20080;-81
2021/06/22 09:05:45;;;;;;;23.83;11.60;;;;;;;16.57;71.61;101220.69;5049384;28;20045;-82
2021/06/22 09:08:19;;;;;;;17.60;10.77;;;;;;;16.55;71.91;101211.94;5037366;28;20086;-81
2021/06/22 09:10:46;;;;;;;14.60;10.82;;;;;;;16.57;71.13;101213.41;5049104;28;20055;-82
2021/06/22 09:13:18;;;;;;;19.08;11.80;;;;;;;16.86;72.46;101226.03;5042545;28;20040;-82
2021/06/22 09:15:47;;;;;;;16.40;10.98;;;;;;;16.96;70.10;101227.56;5038740;28;20500;-83
2021/06/22 09:18:35;;;;;;;14.80;11.27;;;;;;;16.90;71.01;101221.88;5037239;28;20103;-83
2021/06/22 09:21:18;;;;;;;17.03;12.20;;;;;;;16.88;72.41;101223.94;5066448;28;20043;-82
2021/06/22 09:23:44;;;;;;;15.57;10.40;;;;;;;16.76;70.70;101219.22;5026301;28;20056;-83
2021/06/22 09:26:24;;;;;;;15.40;11.60;;;;;;;16.88;70.59;101217.69;5053512;28;20056;-82
2021/06/22 09:28:51;;;;;;;15.80;11.13;;;;;;;17.01;70.03;101222.38;5054930;28;20620;-82
2021/06/22 09:31:22;;;;;;;14.48;10.98;;;;;;;16.92;69.05;101227.94;5042939;28;20469;-84
2021/06/22 09:33:51;;;;;;;15.95;11.70;;;;;;;16.94;71.07;101222.31;5060967;28;20044;-83
2021/06/22 09:36:24;;;;;;;;;;;;;;;16.92;70.57;101213.56;5039073;28;20037;-84
2021/06/22 09:38:55;;;;;;;17.23;12.00;;;;;;;17.09;71.17;101212.25;5057687;28;19974;-83
2021/06/22 09:41:29;;;;;;;17.65;11.60;;;;;;;17.19;69.75;101214.59;5042283;28;20052;-83
2021/06/22 09:44:07;;;;;;;14.70;11.00;;;;;;;17.38;69.33;101204.94;5039040;28;20521;-82
2021/06/22 09:46:35;;;;;;;13.65;11.15;;;;;;;17.31;65.88;101195.91;5035624;28;20552;-86
2021/06/22 09:49:01;;;;;;;14.30;10.77;;;;;;;17.18;68.83;101193.94;5040876;28;20041;-84
2021/06/22 09:51:38;;;;;;;14.18;10.98;;;;;;;17.56;69.46;101202.50;5038637;28;20481;-83
2021/06/22 09:54:16;;;;;;;14.60;11.13;;;;;;;17.65;65.07;101210.50;5054305;28;20029;-82
2021/06/22 09:57:04;;;;;;;14.77;11.10;;;;;;;17.46;64.92;101220.19;5053885;28;20041;-83
2021/06/22 09:59:47;;;;;;;16.25;10.90;;;;;;;17.69;68.38;101207.16;5051494;28;21192;-84
2021/06/22 10:02:13;;;;;;;16.90;12.32;;;;;;;17.79;67.94;101204.97;5040447;28;20080;-85
2021/06/22 10:04:44;;;;;;;15.15;11.20;;;;;;;17.91;66.78;101207.09;5032708;28;20525;-84
2021/06/22 10:07:11;;;;;;;14.57;10.50;;;;;;;17.93;66.01;101200.44;5039607;28;21097;-86
2021/06/22 10:09:37;;;;;;;17.42;10.93;;;;;;;17.81;65.09;101202.88;5034106;28;20050;-82
2021/06/22 10:12:07;;;;;;;16.50;11.93;;;;;;;17.90;67.49;101189.97;5038911;28;20437;-83
2021/06/22 10:14:40;;;;;;;15.63;11.75;;;;;;;17.94;64.39;101190.41;5040739;28;20554;-85
2021/06/22 10:17:11;;;;;;;15.95;10.88;;;;;;;18.05;65.17;101189.81;5039177;28;20692;-85
2021/06/22 10:19:37;;;;;;;18.63;10.73;;;;;;;18.33;65.04;101183.44;5040108;28;20541;-82
2021/06/22 10:22:07;;;;;;;20.02;12.35;;;;;;;18.09;63.50;101177.50;5037792;28;20420;-85
2021/06/22 10:24:44;;;;;;;17.35;10.80;;;;;;;18.33;64.51;101195.13;5037475;28;20050;-83
2021/06/22 10:27:11;;;;;;;14.45;9.90;;;;;;;18.34;63.68;101185.09;5043842;28;20048;-83
2021/06/22 10:29:37;;;;;;;14.68;10.50;;;;;;;18.56;63.89;101183.88;5054285;28;20044;-84
2021/06/22 10:32:04;;;;;;;14.27;11.05;;;;;;;18.83;62.23;101178.47;5032755;28;20029;-84
2021/06/22 10:34:31;;;;;;;13.45;10.65;;;;;;;18.67;61.26;101172.41;5038366;28;20046;-85
2021/06/22 10:37:02;;;;;;;15.35;11.18;;;;;;;18.61;60.21;101183.25;5022529;28;20037;-84
2021/06/22 10:39:36;;;;;;;14.48;10.07;;;;;;;18.59;62.79;101186.19;5040531;28;20036;-87
2021/06/22 10:42:10;;;;;;;13.73;9.85;;;;;;;18.60;59.87;101190.56;5037821;28;20076;-82
2021/06/22 10:44:46;;;;;;;13.55;9.90;;;;;;;18.30;61.81;101190.09;5046418;28;20041;-87
2021/06/22 10:47:20;;;;;;;13.90;9.52;;;;;;;18.30;60.56;101200.13;5060746;28;20038;-83
2021/06/22 10:50:03;;;;;;;14.85;10.77;;;;;;;18.51;62.99;101196.41;5040931;28;20106;-85
2021/06/22 10:52:43;;;;;;;13.57;10.57;;;;;;;18.46;59.75;101192.41;5042415;28;20124;-83
2021/06/22 10:55:20;;;;;;;15.52;10.45;;;;;;;18.77;62.25;101195.63;5035588;28;20084;-84
2021/06/22 10:57:57;;;;;;;17.20;10.93;;;;;;;18.72;60.47;101197.03;5027630;28;20486;-81
2021/06/22 11:00:28;;;;;;;15.50;10.80;;;;;;;18.71;61.09;101203.53;5050930;28;20045;-82
2021/06/22 11:03:04;;;;;;;14.60;9.73;;;;;;;19.15;62.46;101199.38;5041276;28;20179;-81
2021/06/22 11:05:31;;;;;;;13.63;10.13;;;;;;;18.88;58.89;101209.44;5051588;28;20056;-84
2021/06/22 11:08:13;;;;;;;14.65;10.68;;;;;;;18.44;58.20;101199.97;5057129;28;20610;-82
2021/06/22 11:10:53;;;;;;;15.38;11.30;;;;;;;18.28;60.99;101208.47;5035751;28;20045;-82
2021/06/22 11:13:41;;;;;;;14.65;10.07;;;;;;;18.47;60.24;101207.69;5038116;28;20046;-85